createdAt,value
2023-04-15T00:00:36.132Z,32.32
2023-04-15T00:01:36.161Z,32.23
2023-04-15T00:02:36.284Z,31.37
2023-04-15T00:03:36.472Z,30.19
2023-04-15T00:04:36.277Z,32.99
2023-04-15T00:05:36.293Z,31.15
2023-04-15T00:06:36.895Z,29.03
2023-04-15T00:07:36.392Z,30.94
2023-04-15T00:08:36.418Z,30.60
2023-04-15T00:09:36.495Z,35.51
2023-04-15T00:10:36.534Z,32.21
2023-04-15T00:11:36.622Z,30.54
2023-04-15T00:12:36.653Z,32.85
2023-04-15T00:13:36.709Z,33.37
2023-04-15T00:14:36.829Z,35.81
2023-04-15T00:15:36.822Z,31.09
2023-04-15T00:16:36.886Z,33.24
2023-04-15T00:17:36.971Z,30.78
2023-04-15T00:18:36.978Z,29.34
2023-04-15T00:19:37.082Z,32.35
2023-04-15T00:20:37.158Z,31.03
2023-04-15T00:21:37.145Z,33.37
2023-04-15T00:22:37.180Z,32.09
2023-04-15T00:23:37.250Z,30.68
2023-04-15T00:24:37.287Z,35.36
2023-04-15T00:25:37.347Z,34.10
2023-04-15T00:26:37.414Z,30.64
2023-04-15T00:27:37.472Z,29.09
2023-04-15T00:28:37.488Z,30.95
2023-04-15T00:29:37.581Z,33.04
2023-04-15T00:30:37.707Z,34.89
2023-04-15T00:31:37.667Z,33.38
2023-04-15T00:32:37.767Z,33.30
2023-04-15T00:33:37.755Z,30.83
2023-04-15T00:34:37.833Z,36.78
2023-04-15T00:35:37.944Z,33.05
2023-04-15T00:36:37.959Z,31.55
2023-04-15T00:37:37.971Z,28.50
2023-04-15T00:38:38.045Z,32.67
2023-04-15T00:39:38.094Z,32.06
2023-04-15T00:40:38.154Z,30.80
2023-04-15T00:41:38.182Z,36.18
2023-04-15T00:42:38.236Z,31.11
2023-04-15T00:43:38.298Z,33.35
2023-04-15T00:44:38.406Z,32.50
2023-04-15T00:45:38.449Z,32.93
2023-04-15T00:46:38.483Z,32.36
2023-04-15T00:47:38.573Z,30.25
2023-04-15T00:48:38.582Z,35.52
2023-04-15T00:49:38.659Z,31.29
2023-04-15T00:50:38.724Z,32.01
2023-04-15T00:51:38.778Z,33.19
2023-04-15T00:52:38.840Z,35.63
2023-04-15T00:53:38.881Z,31.90
2023-04-15T00:54:38.976Z,35.79
2023-04-15T00:55:39.016Z,32.00
2023-04-15T00:56:39.023Z,32.55
2023-04-15T00:57:39.082Z,34.50
2023-04-15T00:58:39.118Z,32.75
2023-04-15T00:59:39.177Z,36.14
2023-04-15T01:00:39.258Z,27.83
2023-04-15T01:01:39.253Z,33.54
2023-04-15T01:02:39.601Z,33.75
2023-04-15T01:03:39.506Z,31.06
2023-04-15T01:04:39.465Z,34.40
2023-04-15T01:05:39.518Z,35.80
2023-04-15T01:06:39.549Z,37.80
2023-04-15T01:07:39.641Z,37.25
2023-04-15T01:08:39.692Z,37.37
2023-04-15T01:09:39.715Z,38.55
2023-04-15T01:10:39.782Z,35.97
2023-04-15T01:11:39.888Z,37.48
2023-04-15T01:12:39.920Z,35.29
2023-04-15T01:13:39.963Z,39.26
2023-04-15T01:14:40.023Z,36.97
2023-04-15T01:15:40.088Z,36.02
2023-04-15T01:16:40.160Z,36.81
2023-04-15T01:17:40.188Z,38.60
2023-04-15T01:18:40.255Z,34.95
2023-04-15T01:19:40.287Z,32.65
2023-04-15T01:20:40.348Z,32.17
2023-04-15T01:21:40.438Z,35.05
2023-04-15T01:22:40.458Z,29.52
2023-04-15T01:23:40.512Z,32.13
2023-04-15T01:24:40.589Z,33.61
2023-04-15T01:25:40.627Z,32.66
2023-04-15T01:26:40.989Z,37.09
2023-04-15T01:27:40.740Z,32.58
2023-04-15T01:28:40.822Z,33.34
2023-04-15T01:29:40.884Z,33.40
2023-04-15T01:30:40.894Z,35.15
2023-04-15T01:31:40.976Z,33.07
2023-04-15T01:32:41.054Z,34.41
2023-04-15T01:33:41.060Z,37.75
2023-04-15T01:34:41.109Z,34.99
2023-04-15T01:35:41.187Z,34.69
2023-04-15T01:36:41.248Z,33.69
2023-04-15T01:37:41.288Z,36.18
2023-04-15T01:38:41.304Z,36.28
2023-04-15T01:39:41.373Z,37.83
2023-04-15T01:40:41.462Z,34.69
2023-04-15T01:41:41.496Z,36.28
2023-04-15T01:42:41.559Z,36.61
2023-04-15T01:43:41.637Z,33.32
2023-04-15T01:44:41.703Z,39.60
2023-04-15T01:45:41.724Z,36.17
2023-04-15T01:46:41.812Z,34.10
2023-04-15T01:47:41.943Z,35.81
2023-04-15T01:48:41.905Z,35.78
2023-04-15T01:49:41.983Z,37.37
2023-04-15T01:50:42.047Z,37.90
2023-04-15T01:51:42.102Z,34.81
2023-04-15T01:52:42.311Z,30.15
2023-04-15T01:53:42.203Z,33.14
2023-04-15T01:54:42.273Z,31.18
2023-04-15T01:55:42.354Z,35.99
2023-04-15T01:56:42.424Z,32.93
2023-04-15T01:57:42.441Z,37.77
2023-04-15T01:58:42.481Z,33.46
2023-04-15T01:59:42.582Z,32.31
2023-04-15T02:00:42.675Z,38.48
2023-04-15T02:01:42.695Z,33.44
2023-04-15T02:02:42.881Z,32.41
2023-04-15T02:03:42.949Z,35.12
2023-04-15T02:04:42.876Z,34.10
2023-04-15T02:05:42.922Z,34.01
2023-04-15T02:06:42.963Z,32.93
2023-04-15T02:07:43.083Z,35.64
2023-04-15T02:08:43.090Z,34.54
2023-04-15T02:09:43.168Z,30.95
2023-04-15T02:10:43.269Z,32.54
2023-04-15T02:11:43.312Z,29.12
2023-04-15T02:12:43.383Z,33.38
2023-04-15T02:13:43.406Z,27.60
2023-04-15T02:14:43.469Z,29.53
2023-04-15T02:15:43.524Z,32.60
2023-04-15T02:16:43.611Z,33.17
2023-04-15T02:17:43.680Z,31.14
2023-04-15T02:18:43.741Z,32.77
2023-04-15T02:19:43.804Z,31.25
2023-04-15T02:20:43.853Z,27.66
2023-04-15T02:21:43.904Z,30.10
2023-04-15T02:22:43.986Z,27.68
2023-04-15T02:23:44.081Z,31.80
2023-04-15T02:24:44.076Z,30.13
2023-04-15T02:25:53.812Z,34.15
2023-04-15T02:26:45.152Z,34.43
2023-04-15T02:27:44.153Z,34.68
2023-04-15T02:28:44.146Z,35.27
2023-04-15T02:29:44.117Z,33.10
2023-04-15T02:30:44.148Z,35.12
2023-04-15T02:31:44.180Z,31.76
2023-04-15T02:32:44.135Z,36.64
2023-04-15T02:33:44.138Z,36.19
2023-04-15T02:34:44.098Z,37.25
2023-04-15T02:35:44.109Z,35.78
2023-04-15T02:36:44.223Z,32.76
2023-04-15T02:37:44.240Z,35.04
2023-04-15T02:38:44.318Z,35.75
2023-04-15T02:39:44.387Z,33.09
2023-04-15T02:40:44.433Z,32.62
2023-04-15T02:41:44.512Z,37.70
2023-04-15T02:42:44.564Z,34.80
2023-04-15T02:43:44.653Z,33.92
2023-04-15T02:44:44.698Z,35.75
2023-04-15T02:45:44.812Z,34.22
2023-04-15T02:46:44.845Z,31.30
2023-04-15T02:47:44.920Z,32.29
2023-04-15T02:48:44.952Z,35.98
2023-04-15T02:49:44.989Z,32.64
2023-04-15T02:50:45.082Z,31.10
2023-04-15T02:51:45.140Z,35.49
2023-04-15T02:52:45.188Z,34.23
2023-04-15T02:53:45.235Z,31.43
2023-04-15T02:54:45.292Z,30.98
2023-04-15T02:55:45.340Z,31.51
2023-04-15T02:56:45.400Z,32.30
2023-04-15T02:57:45.450Z,35.00
2023-04-15T02:58:45.545Z,32.91
2023-04-15T02:59:45.578Z,34.15
2023-04-15T03:00:45.664Z,34.20
2023-04-15T03:01:45.800Z,33.03
2023-04-15T03:02:45.838Z,29.11
2023-04-15T03:03:45.851Z,30.98
2023-04-15T03:04:45.881Z,31.14
2023-04-15T03:05:45.994Z,28.79
2023-04-15T03:06:46.021Z,32.03
2023-04-15T03:07:46.039Z,28.05
2023-04-15T03:08:46.122Z,27.82
2023-04-15T03:09:46.168Z,27.69
2023-04-15T03:10:46.238Z,32.65
2023-04-15T03:11:46.267Z,33.72
2023-04-15T03:12:46.342Z,26.19
2023-04-15T03:13:46.360Z,32.85
2023-04-15T03:14:46.453Z,31.18
2023-04-15T03:15:46.506Z,30.53
2023-04-15T03:16:46.510Z,30.65
2023-04-15T03:17:46.613Z,33.96
2023-04-15T03:18:46.622Z,33.18
2023-04-15T03:19:46.685Z,29.58
2023-04-15T03:20:46.829Z,33.30
2023-04-15T03:21:46.803Z,30.36
2023-04-15T03:22:46.861Z,32.63
2023-04-15T03:23:47.004Z,28.32
2023-04-15T03:24:46.987Z,34.49
2023-04-15T03:25:47.050Z,32.33
2023-04-15T03:26:47.075Z,31.63
2023-04-15T03:27:47.153Z,31.10
2023-04-15T03:28:47.193Z,29.99
2023-04-15T03:29:47.266Z,34.48
2023-04-15T03:30:47.277Z,29.09
2023-04-15T03:31:47.328Z,32.52
2023-04-15T03:32:47.531Z,29.57
2023-04-15T03:33:47.442Z,28.95
2023-04-15T03:34:47.501Z,32.01
2023-04-15T03:35:47.569Z,34.19
2023-04-15T03:36:47.599Z,27.16
2023-04-15T03:37:47.620Z,29.98
2023-04-15T03:38:47.692Z,29.12
2023-04-15T03:39:47.712Z,30.74
2023-04-15T03:40:47.747Z,28.20
2023-04-15T03:41:47.820Z,29.22
2023-04-15T03:42:47.897Z,26.15
2023-04-15T03:43:47.936Z,26.60
2023-04-15T03:44:48.033Z,29.30
2023-04-15T03:45:48.050Z,27.37
2023-04-15T03:46:48.203Z,29.79
2023-04-15T03:47:48.131Z,27.11
2023-04-15T03:48:48.182Z,27.16
2023-04-15T03:49:48.239Z,30.88
2023-04-15T03:50:48.267Z,30.37
2023-04-15T03:51:48.405Z,28.85
2023-04-15T03:52:49.602Z,28.14
2023-04-15T03:53:48.385Z,32.23
2023-04-15T03:54:48.362Z,32.18
2023-04-15T03:55:48.339Z,29.49
2023-04-15T03:56:48.323Z,31.04
2023-04-15T03:57:48.342Z,30.20
2023-04-15T03:58:48.314Z,30.45
2023-04-15T03:59:48.357Z,27.72
2023-04-15T04:00:48.318Z,29.23
2023-04-15T04:01:48.371Z,29.86
2023-04-15T04:02:48.654Z,26.32
2023-04-15T04:03:48.396Z,33.09
2023-04-15T04:04:48.382Z,31.15
2023-04-15T04:05:48.275Z,27.23
2023-04-15T04:06:48.253Z,29.18
2023-04-15T04:07:48.269Z,28.47
2023-04-15T04:08:48.239Z,25.35
2023-04-15T04:09:48.260Z,25.00
2023-04-15T04:10:48.228Z,30.28
2023-04-15T04:11:48.230Z,28.88
2023-04-15T04:12:48.225Z,27.78
2023-04-15T04:13:48.218Z,28.36
2023-04-15T04:14:48.223Z,27.19
2023-04-15T04:15:48.289Z,25.21
2023-04-15T04:16:48.214Z,26.45
2023-04-15T04:17:48.302Z,27.80
2023-04-15T04:18:48.157Z,28.83
2023-04-15T04:19:48.217Z,29.20
2023-04-15T04:20:48.179Z,31.76
2023-04-15T04:21:48.193Z,29.77
2023-04-15T04:22:48.173Z,30.95
2023-04-15T04:23:48.174Z,29.97
2023-04-15T04:24:48.148Z,28.09
2023-04-15T04:25:48.126Z,28.94
2023-04-15T04:26:48.111Z,30.06
2023-04-15T04:27:48.120Z,29.60
2023-04-15T04:28:48.103Z,30.08
2023-04-15T04:29:48.132Z,29.70
2023-04-15T04:30:48.138Z,29.64
2023-04-15T04:31:48.148Z,31.68
2023-04-15T04:32:48.193Z,27.45
2023-04-15T04:33:48.134Z,27.12
2023-04-15T04:34:48.167Z,27.93
2023-04-15T04:35:48.218Z,29.75
2023-04-15T04:36:48.268Z,26.40
2023-04-15T04:37:48.321Z,29.96
2023-04-15T04:38:48.337Z,30.33
2023-04-15T04:39:48.385Z,26.60
2023-04-15T04:40:48.408Z,28.40
2023-04-15T04:41:48.456Z,29.39
2023-04-15T04:42:48.555Z,27.76
2023-04-15T04:43:48.588Z,26.82
2023-04-15T04:44:48.641Z,26.08
2023-04-15T04:45:48.740Z,29.74
2023-04-15T04:46:48.794Z,29.63
2023-04-15T04:47:48.847Z,29.11
2023-04-15T04:48:48.880Z,26.17
2023-04-15T04:49:48.961Z,29.27
2023-04-15T04:50:49.021Z,27.49
2023-04-15T04:51:49.064Z,27.12
2023-04-15T04:52:49.126Z,27.11
2023-04-15T04:53:49.188Z,26.64
2023-04-15T04:54:49.303Z,26.90
2023-04-15T04:55:49.387Z,28.63
2023-04-15T04:56:49.365Z,26.22
2023-04-15T04:57:49.438Z,27.24
2023-04-15T04:58:49.492Z,25.16
2023-04-15T04:59:49.549Z,26.71
2023-04-15T05:00:49.604Z,27.38
2023-04-15T05:01:49.696Z,27.14
2023-04-15T05:02:49.773Z,27.63
2023-04-15T05:03:49.848Z,28.20
2023-04-15T05:04:49.900Z,30.10
2023-04-15T05:05:49.866Z,30.45
2023-04-15T05:06:49.970Z,28.28
2023-04-15T05:07:50.017Z,28.48
2023-04-15T05:08:50.065Z,28.59
2023-04-15T05:09:50.129Z,26.17
2023-04-15T05:10:50.211Z,29.49
2023-04-15T05:11:50.251Z,28.61
2023-04-15T05:12:50.313Z,26.30
2023-04-15T05:13:50.362Z,26.10
2023-04-15T05:14:50.468Z,30.72
2023-04-15T05:15:50.498Z,30.99
2023-04-15T05:16:50.548Z,34.23
2023-04-15T05:17:50.737Z,31.87
2023-04-15T05:18:50.685Z,31.25
2023-04-15T05:19:50.744Z,32.32
2023-04-15T05:20:50.860Z,33.59
2023-04-15T05:21:50.871Z,31.98
2023-04-15T05:22:50.901Z,30.92
2023-04-15T05:23:50.972Z,31.16
2023-04-15T05:24:51.061Z,32.85
2023-04-15T05:25:51.120Z,32.99
2023-04-15T05:26:51.148Z,34.57
2023-04-15T05:27:51.218Z,36.15
2023-04-15T05:28:51.282Z,32.66
2023-04-15T05:29:51.340Z,30.16
2023-04-15T05:30:51.446Z,32.55
2023-04-15T05:31:51.468Z,30.70
2023-04-15T05:32:51.582Z,27.99
2023-04-15T05:33:51.607Z,28.25
2023-04-15T05:34:51.681Z,31.50
2023-04-15T05:35:51.747Z,25.38
2023-04-15T05:36:51.784Z,29.54
2023-04-15T05:37:51.824Z,31.04
2023-04-15T05:38:51.865Z,27.58
2023-04-15T05:39:51.943Z,29.05
2023-04-15T05:40:51.971Z,28.06
2023-04-15T05:41:52.015Z,29.20
2023-04-15T05:42:52.106Z,27.03
2023-04-15T05:43:52.157Z,27.00
2023-04-15T05:44:52.185Z,26.91
2023-04-15T05:45:52.272Z,25.83
2023-04-15T05:46:52.307Z,29.59
2023-04-15T05:47:52.424Z,30.56
2023-04-15T05:48:53.808Z,30.21
2023-04-15T05:49:52.467Z,29.17
2023-04-15T05:50:52.537Z,27.37
2023-04-15T05:51:52.618Z,27.04
2023-04-15T05:52:52.644Z,28.34
2023-04-15T05:53:52.717Z,27.54
2023-04-15T05:54:52.793Z,27.98
2023-04-15T05:55:52.821Z,26.55
2023-04-15T05:56:52.895Z,28.30
2023-04-15T05:57:52.965Z,29.62
2023-04-15T05:58:53.909Z,26.00
2023-04-15T05:59:53.030Z,25.48
2023-04-15T06:00:53.092Z,31.66
2023-04-15T06:01:53.213Z,30.07
2023-04-15T06:02:53.340Z,29.52
2023-04-15T06:03:53.382Z,29.83
2023-04-15T06:04:53.343Z,30.60
2023-04-15T06:05:53.395Z,28.54
2023-04-15T06:06:53.428Z,28.48
2023-04-15T06:07:53.476Z,28.43
2023-04-15T06:08:53.533Z,25.42
2023-04-15T06:09:53.621Z,26.21
2023-04-15T06:10:53.653Z,26.76
2023-04-15T06:11:53.710Z,28.09
2023-04-15T06:12:53.759Z,28.37
2023-04-15T06:13:53.829Z,26.52
2023-04-15T06:14:53.916Z,26.53
2023-04-15T06:15:53.993Z,26.53
2023-04-15T06:16:53.997Z,24.58
2023-04-15T06:17:54.151Z,30.33
2023-04-15T06:18:54.115Z,30.28
2023-04-15T06:19:54.187Z,30.15
2023-04-15T06:20:54.311Z,26.67
2023-04-15T06:21:54.371Z,26.19
2023-04-15T06:22:54.367Z,25.76
2023-04-15T06:23:54.448Z,26.26
2023-04-15T06:24:54.457Z,27.47
2023-04-15T06:25:54.519Z,28.28
2023-04-15T06:26:54.573Z,29.25
2023-04-15T06:27:54.663Z,27.27
2023-04-15T06:28:54.726Z,29.78
2023-04-15T06:29:54.779Z,25.58
2023-04-15T06:30:54.800Z,28.08
2023-04-15T06:31:54.915Z,28.68
2023-04-15T06:32:54.968Z,29.65
2023-04-15T06:33:54.996Z,30.52
2023-04-15T06:34:55.083Z,28.90
2023-04-15T06:35:55.084Z,26.47
2023-04-15T06:36:55.131Z,25.61
2023-04-15T06:37:55.151Z,26.48
2023-04-15T06:38:55.216Z,26.69
2023-04-15T06:39:55.289Z,29.94
2023-04-15T06:40:55.281Z,29.33
2023-04-15T06:41:55.375Z,32.13
2023-04-15T06:42:55.418Z,31.93
2023-04-15T06:43:55.431Z,27.59
2023-04-15T06:44:55.500Z,28.20
2023-04-15T06:45:55.597Z,30.37
2023-04-15T06:46:55.602Z,27.75
2023-04-15T06:47:55.767Z,25.87
2023-04-15T06:48:55.707Z,27.65
2023-04-15T06:49:55.759Z,30.89
2023-04-15T06:50:55.786Z,35.38
2023-04-15T06:51:55.858Z,35.70
2023-04-15T06:52:55.911Z,35.51
2023-04-15T06:53:55.970Z,35.59
2023-04-15T06:54:56.029Z,36.78
2023-04-15T06:55:56.049Z,39.15
2023-04-15T06:56:56.106Z,39.10
2023-04-15T06:57:56.153Z,40.39
2023-04-15T06:58:56.217Z,37.95
2023-04-15T06:59:56.281Z,44.51
2023-04-15T07:00:56.332Z,39.61
2023-04-15T07:01:56.389Z,42.45
2023-04-15T07:02:56.536Z,41.12
2023-04-15T07:03:56.538Z,43.75
2023-04-15T07:04:56.580Z,45.15
2023-04-15T07:05:56.631Z,46.93
2023-04-15T07:06:56.706Z,45.76
2023-04-15T07:07:56.773Z,47.98
2023-04-15T07:08:56.801Z,47.32
2023-04-15T07:09:56.880Z,42.91
2023-04-15T07:10:56.947Z,43.01
2023-04-15T07:11:56.969Z,42.36
2023-04-15T07:12:57.075Z,44.77
2023-04-15T07:13:57.118Z,44.83
2023-04-15T07:14:57.172Z,45.95
2023-04-15T07:15:57.219Z,46.88
2023-04-15T07:16:57.335Z,46.24
2023-04-15T07:17:57.424Z,42.79
2023-04-15T07:18:57.450Z,41.13
2023-04-15T07:19:57.517Z,46.26
2023-04-15T07:20:57.569Z,47.33
2023-04-15T07:21:57.589Z,42.71
2023-04-15T07:22:57.686Z,41.86
2023-04-15T07:23:57.734Z,44.29
2023-04-15T07:24:57.803Z,42.85
2023-04-15T07:25:57.880Z,44.87
2023-04-15T07:26:59.420Z,45.21
2023-04-15T07:27:57.938Z,48.99
2023-04-15T07:28:57.894Z,51.55
2023-04-15T07:29:57.895Z,46.51
2023-04-15T07:30:57.907Z,43.75
2023-04-15T07:31:57.901Z,50.67
2023-04-15T07:32:57.908Z,49.82
2023-04-15T07:33:57.864Z,50.71
2023-04-15T07:34:57.864Z,56.77
2023-04-15T07:35:57.845Z,53.50
2023-04-15T07:36:57.873Z,48.59
2023-04-15T07:37:57.830Z,51.22
2023-04-15T07:38:57.830Z,51.44
2023-04-15T07:39:57.839Z,54.16
2023-04-15T07:40:57.814Z,55.84
2023-04-15T07:41:57.834Z,50.94
2023-04-15T07:42:57.945Z,51.75
2023-04-15T07:43:57.797Z,52.95
2023-04-15T07:44:57.799Z,55.71
2023-04-15T07:45:57.832Z,56.39
2023-04-15T07:46:57.806Z,55.32
2023-04-15T07:47:57.965Z,54.69
2023-04-15T07:48:57.788Z,53.35
2023-04-15T07:49:57.793Z,52.64
2023-04-15T07:50:57.778Z,53.96
2023-04-15T07:51:57.772Z,51.16
2023-04-15T07:52:57.773Z,54.01
2023-04-15T07:53:57.765Z,56.68
2023-04-15T07:54:57.751Z,52.01
2023-04-15T07:55:57.773Z,51.31
2023-04-15T07:56:57.728Z,49.29
2023-04-15T07:57:57.727Z,48.18
2023-04-15T07:58:57.736Z,54.47
2023-04-15T07:59:57.706Z,49.90
2023-04-15T08:00:57.703Z,53.68
2023-04-15T08:01:57.887Z,51.57
2023-04-15T08:02:57.806Z,53.11
2023-04-15T08:03:57.884Z,47.78
2023-04-15T08:04:57.701Z,47.60
2023-04-15T08:05:57.670Z,54.54
2023-04-15T08:06:57.672Z,54.80
2023-04-15T08:07:57.657Z,51.42
2023-04-15T08:08:57.769Z,49.72
2023-04-15T08:09:57.638Z,48.49
2023-04-15T08:10:57.651Z,50.91
2023-04-15T08:11:57.623Z,54.04
2023-04-15T08:12:57.644Z,52.42
2023-04-15T08:13:57.695Z,51.03
2023-04-15T08:14:57.731Z,52.14
2023-04-15T08:15:57.815Z,51.90
2023-04-15T08:16:57.851Z,53.01
2023-04-15T08:17:57.929Z,48.41
2023-04-15T08:18:58.020Z,46.52
2023-04-15T08:19:57.993Z,43.37
2023-04-15T08:20:58.036Z,42.21
2023-04-15T08:21:58.089Z,39.77
2023-04-15T08:22:58.169Z,38.18
2023-04-15T08:23:58.206Z,37.83
2023-04-15T08:24:58.272Z,36.59
2023-04-15T08:25:58.357Z,38.98
2023-04-15T08:26:58.386Z,35.26
2023-04-15T08:27:58.448Z,35.99
2023-04-15T08:28:58.494Z,36.62
2023-04-15T08:29:58.579Z,37.97
2023-04-15T08:30:58.596Z,37.98
2023-04-15T08:31:58.709Z,34.96
2023-04-15T08:32:58.788Z,30.40
2023-04-15T08:33:58.794Z,30.99
2023-04-15T08:34:58.845Z,30.76
2023-04-15T08:35:58.900Z,31.53
2023-04-15T08:36:59.586Z,29.43
2023-04-15T08:37:59.009Z,28.81
2023-04-15T08:38:59.096Z,27.85
2023-04-15T08:39:59.143Z,27.07
2023-04-15T08:40:59.202Z,33.27
2023-04-15T08:41:59.254Z,37.17
2023-04-15T08:42:59.303Z,37.85
2023-04-15T08:43:59.373Z,39.96
2023-04-15T08:44:59.432Z,44.59
2023-04-15T08:45:59.490Z,41.17
2023-04-15T08:46:59.590Z,42.07
2023-04-15T08:47:59.642Z,39.33
2023-04-15T08:48:59.892Z,38.44
2023-04-15T08:49:59.711Z,41.18
2023-04-15T08:50:59.785Z,37.83
2023-04-15T08:51:59.843Z,39.43
2023-04-15T08:52:59.877Z,39.41
2023-04-15T08:54:00.006Z,42.19
2023-04-15T08:54:59.981Z,46.02
2023-04-15T08:56:00.081Z,47.60
2023-04-15T08:57:00.135Z,43.17
2023-04-15T08:58:00.185Z,43.34
2023-04-15T08:59:00.584Z,41.80
2023-04-15T09:00:01.344Z,41.96
2023-04-15T09:01:00.406Z,43.93
2023-04-15T09:02:00.537Z,47.58
2023-04-15T09:03:00.552Z,44.32
2023-04-15T09:04:00.615Z,43.96
2023-04-15T09:05:00.625Z,40.15
2023-04-15T09:06:00.693Z,39.40
2023-04-15T09:07:00.732Z,38.93
2023-04-15T09:08:00.907Z,39.07
2023-04-15T09:09:01.056Z,40.74
2023-04-15T09:10:00.945Z,39.25
2023-04-15T09:11:00.973Z,41.84
2023-04-15T09:12:01.054Z,42.58
2023-04-15T09:13:01.119Z,37.79
2023-04-15T09:14:01.143Z,44.52
2023-04-15T09:15:01.219Z,39.09
2023-04-15T09:16:01.288Z,44.49
2023-04-15T09:17:01.474Z,44.74
2023-04-15T09:18:01.492Z,44.10
2023-04-15T09:19:01.683Z,43.95
2023-04-15T09:20:01.568Z,42.24
2023-04-15T09:21:01.620Z,45.74
2023-04-15T09:22:01.685Z,44.46
2023-04-15T09:23:01.738Z,42.11
2023-04-15T09:24:02.152Z,42.15
2023-04-15T09:25:01.888Z,45.47
2023-04-15T09:26:01.930Z,43.06
2023-04-15T09:27:01.985Z,43.11
2023-04-15T09:28:02.051Z,46.19
2023-04-15T09:29:02.084Z,45.28
2023-04-15T09:30:02.214Z,41.79
2023-04-15T09:31:02.237Z,47.29
2023-04-15T09:32:02.274Z,45.82
2023-04-15T09:33:02.523Z,46.99
2023-04-15T09:34:02.563Z,51.20
2023-04-15T09:35:02.447Z,47.94
2023-04-15T09:36:02.510Z,43.58
2023-04-15T09:37:03.177Z,48.53
2023-04-15T09:38:02.673Z,41.83
2023-04-15T09:39:02.720Z,46.45
2023-04-15T09:40:02.774Z,50.77
2023-04-15T09:41:02.836Z,49.63
2023-04-15T09:42:02.877Z,50.15
2023-04-15T09:43:02.957Z,50.82
2023-04-15T09:44:03.131Z,51.22
2023-04-15T09:45:03.072Z,52.43
2023-04-15T09:46:03.199Z,56.53
2023-04-15T09:47:03.183Z,55.27
2023-04-15T09:48:03.298Z,56.44
2023-04-15T09:49:03.303Z,59.83
2023-04-15T09:50:03.462Z,59.74
2023-04-15T09:51:03.385Z,59.38
2023-04-15T09:52:06.170Z,60.00
2023-04-15T09:53:03.437Z,62.47
2023-04-15T09:54:03.607Z,61.33
2023-04-15T09:55:03.440Z,66.66
2023-04-15T09:56:03.473Z,66.81
2023-04-15T09:57:03.416Z,69.89
2023-04-15T09:58:03.388Z,66.06
2023-04-15T09:59:03.389Z,64.23
2023-04-15T10:00:03.423Z,66.02
2023-04-15T10:01:03.405Z,68.07
2023-04-15T10:02:03.437Z,71.44
2023-04-15T10:03:03.531Z,67.66
2023-04-15T10:04:03.609Z,68.88
2023-04-15T10:05:03.387Z,72.96
2023-04-15T10:06:03.359Z,71.47
2023-04-15T10:07:03.352Z,71.01
2023-04-15T10:08:03.336Z,77.73
2023-04-15T10:09:03.339Z,75.63
2023-04-15T10:10:03.330Z,81.59
2023-04-15T10:11:03.373Z,83.10
2023-04-15T10:12:03.312Z,81.18
2023-04-15T10:13:03.312Z,80.32
2023-04-15T10:14:03.577Z,83.09
2023-04-15T10:15:03.318Z,85.09
2023-04-15T10:16:03.329Z,80.65
2023-04-15T10:17:03.302Z,79.20
2023-04-15T10:18:03.334Z,83.74
2023-04-15T10:19:03.260Z,86.86
2023-04-15T10:20:03.240Z,86.12
2023-04-15T10:21:03.245Z,88.34
2023-04-15T10:22:03.253Z,94.12
2023-04-15T10:23:03.237Z,83.94
2023-04-15T10:24:03.404Z,86.17
2023-04-15T10:25:03.300Z,92.21
2023-04-15T10:26:03.258Z,87.91
2023-04-15T10:27:03.196Z,85.88
2023-04-15T10:28:03.250Z,85.25
2023-04-15T10:29:03.201Z,92.71
2023-04-15T10:30:03.198Z,93.06
2023-04-15T10:31:03.222Z,88.50
2023-04-15T10:32:03.264Z,92.23
2023-04-15T10:33:03.270Z,88.50
2023-04-15T10:34:03.421Z,86.57
2023-04-15T10:35:03.400Z,86.41
2023-04-15T10:36:03.447Z,85.40
2023-04-15T10:37:03.563Z,83.85
2023-04-15T10:38:03.542Z,82.27
2023-04-15T10:39:03.596Z,89.73
2023-04-15T10:40:03.574Z,91.05
2023-04-15T10:41:03.713Z,89.89
2023-04-15T10:42:03.664Z,92.29
2023-04-15T10:43:03.691Z,90.17
2023-04-15T10:44:04.175Z,92.87
2023-04-15T10:45:04.703Z,92.95
2023-04-15T10:46:03.788Z,91.35
2023-04-15T10:47:03.717Z,93.51
2023-04-15T10:48:04.002Z,92.31
2023-04-15T10:49:03.722Z,90.78
2023-04-15T10:50:03.729Z,95.63
2023-04-15T10:51:03.684Z,94.61
2023-04-15T10:52:03.698Z,96.84
2023-04-15T10:53:03.690Z,95.25
2023-04-15T10:54:03.668Z,96.69
2023-04-15T10:55:03.682Z,95.16
2023-04-15T10:56:03.645Z,96.01
2023-04-15T10:57:03.673Z,97.24
2023-04-15T10:58:03.660Z,96.12
2023-04-15T10:59:03.688Z,101.60
2023-04-15T11:00:03.729Z,104.90
2023-04-15T11:01:03.791Z,104.65
2023-04-15T11:02:03.908Z,102.71
2023-04-15T11:03:03.897Z,102.13
2023-04-15T11:04:04.160Z,98.54
2023-04-15T11:05:03.850Z,101.10
2023-04-15T11:06:03.887Z,99.12
2023-04-15T11:07:04.015Z,99.37
2023-04-15T11:08:03.951Z,104.28
2023-04-15T11:09:03.991Z,104.24
2023-04-15T11:10:04.007Z,102.39
2023-04-15T11:11:04.054Z,102.71
2023-04-15T11:12:04.081Z,103.58
2023-04-15T11:13:04.150Z,100.44
2023-04-15T11:14:04.363Z,106.01
2023-04-15T11:15:04.171Z,106.91
2023-04-15T11:16:04.291Z,103.47
2023-04-15T11:17:04.266Z,102.58
2023-04-15T11:18:04.293Z,105.00
2023-04-15T11:19:04.333Z,104.65
2023-04-15T11:20:04.324Z,106.85
2023-04-15T11:21:04.366Z,105.15
2023-04-15T11:22:04.412Z,106.75
2023-04-15T11:23:14.152Z,103.83
2023-04-15T11:24:05.762Z,104.01
2023-04-15T11:25:04.425Z,104.48
2023-04-15T11:26:04.418Z,103.58
2023-04-15T11:27:04.436Z,104.44
2023-04-15T11:28:04.407Z,109.64
2023-04-15T11:29:04.676Z,107.58
2023-04-15T11:30:04.366Z,105.61
2023-04-15T11:31:04.393Z,107.82
2023-04-15T11:32:04.447Z,107.94
2023-04-15T11:33:04.418Z,107.53
2023-04-15T11:34:04.409Z,106.28
2023-04-15T11:35:04.343Z,107.98
2023-04-15T11:36:04.372Z,105.59
2023-04-15T11:37:04.360Z,106.55
2023-04-15T11:38:04.313Z,108.68
2023-04-15T11:39:04.304Z,111.27
2023-04-15T11:40:04.319Z,112.86
2023-04-15T11:41:04.328Z,109.70
2023-04-15T11:42:04.302Z,107.49
2023-04-15T11:43:04.317Z,107.58
2023-04-15T11:44:04.508Z,113.14
2023-04-15T11:45:05.178Z,112.58
2023-04-15T11:46:04.338Z,110.63
2023-04-15T11:47:04.319Z,112.45
2023-04-15T11:48:04.351Z,113.19
2023-04-15T11:49:04.387Z,112.11
2023-04-15T11:50:04.382Z,110.35
2023-04-15T11:51:04.440Z,113.27
2023-04-15T11:52:04.481Z,113.82
2023-04-15T11:53:06.902Z,108.73
2023-04-15T11:54:04.752Z,115.16
2023-04-15T11:55:04.503Z,114.24
2023-04-15T11:56:04.501Z,112.64
2023-04-15T11:57:04.504Z,116.00
2023-04-15T11:58:04.476Z,116.20
2023-04-15T11:59:04.448Z,116.95
2023-04-15T12:00:04.465Z,114.49
2023-04-15T12:01:04.427Z,112.03
2023-04-15T12:02:04.492Z,114.51
2023-04-15T12:03:04.512Z,118.53
2023-04-15T12:04:05.050Z,118.29
2023-04-15T12:05:04.403Z,114.59
2023-04-15T12:06:04.435Z,114.63
2023-04-15T12:07:04.395Z,111.77
2023-04-15T12:08:04.371Z,113.59
2023-04-15T12:09:04.381Z,111.45
2023-04-15T12:10:04.370Z,115.11
2023-04-15T12:11:04.348Z,114.76
2023-04-15T12:12:04.359Z,112.51
2023-04-15T12:13:04.363Z,112.95
2023-04-15T12:14:04.468Z,114.82
2023-04-15T12:15:04.359Z,114.38
2023-04-15T12:16:04.401Z,113.74
2023-04-15T12:17:04.300Z,115.15
2023-04-15T12:18:05.441Z,115.89
2023-04-15T12:19:04.324Z,115.45
2023-04-15T12:20:04.352Z,116.79
2023-04-15T12:21:04.304Z,114.68
2023-04-15T12:22:04.287Z,114.61
2023-04-15T12:23:04.287Z,115.56
2023-04-15T12:24:04.504Z,117.55
2023-04-15T12:25:04.264Z,114.83
2023-04-15T12:26:04.282Z,115.86
2023-04-15T12:27:04.246Z,114.62
2023-04-15T12:28:04.263Z,116.46
2023-04-15T12:29:04.246Z,115.18
2023-04-15T12:30:04.220Z,113.66
2023-04-15T12:31:04.250Z,118.52
2023-04-15T12:32:04.231Z,117.58
2023-04-15T12:33:04.240Z,116.42
2023-04-15T12:34:04.455Z,117.43
2023-04-15T12:35:04.206Z,117.41
2023-04-15T12:36:04.316Z,115.71
2023-04-15T12:37:04.178Z,119.45
2023-04-15T12:38:04.168Z,119.79
2023-04-15T12:39:04.175Z,119.03
2023-04-15T12:40:04.171Z,115.93
2023-04-15T12:41:04.199Z,120.93
2023-04-15T12:42:04.185Z,117.93
2023-04-15T12:43:04.235Z,120.92
2023-04-15T12:44:04.591Z,120.99
2023-04-15T12:45:04.262Z,121.73
2023-04-15T12:46:04.328Z,118.39
2023-04-15T12:47:04.350Z,122.72
2023-04-15T12:48:04.355Z,125.00
2023-04-15T12:49:04.334Z,118.39
2023-04-15T12:50:04.370Z,117.62